Time;durP1;ratioP1;P1;durP2;ratioP2;P2;SDS_P1;SDS_P2;PMS_P1;PMS_P2;Temp;Humidity;BMP_temperature;BMP_pressure;BME280_temperature;BME280_humidity;BME280_pressure;Samples;Min_cycle;Max_cycle;Signal;HPM_P1;HPM_P2
2024/01/25 00:00:27;;;;;;;15.10;1.65;;;14.30;65.20;;;;;;5059551;28;20043;-61
2024/01/25 00:02:55;;;;;;;8.43;3.10;;;14.30;65.10;;;;;;5053447;28;20171;-61
2024/01/25 00:05:23;;;;;;;11.57;1.83;;;14.20;65.10;;;;;;5048488;28;20064;-61
2024/01/25 00:07:53;;;;;;;16.65;3.50;;;14.20;65.20;;;;;;5049709;28;20064;-62
2024/01/25 00:10:22;;;;;;;7.90;1.67;;;14.20;65.10;;;;;;5042067;28;20056;-62
2024/01/25 00:12:50;;;;;;;11.00;1.70;;;14.10;65.00;;;;;;5057753;28;20153;-62
2024/01/25 00:15:20;;;;;;;11.15;1.90;;;14.10;65.00;;;;;;5043079;28;20131;-62
2024/01/25 00:17:48;;;;;;;5.13;1.55;;;14.10;65.00;;;;;;5049783;28;21180;-61
2024/01/25 00:20:17;;;;;;;6.00;1.77;;;14.10;65.00;;;;;;5052039;28;20124;-61
2024/01/25 00:22:45;;;;;;;10.68;2.22;;;14.00;64.90;;;;;;5058683;28;20056;-61
2024/01/25 00:25:14;;;;;;;7.85;2.13;;;14.00;64.90;;;;;;5039772;28;20807;-61
2024/01/25 00:27:44;;;;;;;11.38;2.42;;;14.00;65.00;;;;;;5051658;28;20504;-61
2024/01/25 00:30:13;;;;;;;9.93;1.60;;;13.90;64.90;;;;;;5048704;28;20060;-61
2024/01/25 00:32:43;;;;;;;15.68;1.80;;;13.90;64.90;;;;;;5050667;28;20064;-61
2024/01/25 00:35:14;;;;;;;13.55;1.48;;;13.90;64.90;;;;;;5045553;28;20052;-61
2024/01/25 00:37:43;;;;;;;8.35;2.08;;;13.80;64.80;;;;;;5054993;28;20080;-60
2024/01/25 00:40:13;;;;;;;30.15;6.15;;;13.80;64.80;;;;;;5053942;28;20076;-61
2024/01/25 00:42:44;;;;;;;9.90;1.92;;;13.80;64.70;;;;;;5055395;28;20064;-62
2024/01/25 00:45:13;;;;;;;14.90;2.72;;;13.90;65.50;;;;;;5046464;28;20110;-61
2024/01/25 00:47:43;;;;;;;9.07;2.00;;;13.90;65.40;;;;;;5061914;28;20470;-61
2024/01/25 00:50:12;;;;;;;16.73;2.08;;;14.00;64.80;;;;;;5048794;28;20064;-60
2024/01/25 00:52:41;;;;;;;8.07;1.83;;;14.00;65.10;;;;;;5044649;28;20060;-62
2024/01/25 00:55:11;;;;;;;9.32;1.65;;;14.00;64.20;;;;;;5041281;28;20088;-61
2024/01/25 00:57:39;;;;;;;18.80;2.88;;;14.00;64.10;;;;;;5052181;28;20060;-61
2024/01/25 01:00:09;;;;;;;18.48;2.72;;;14.00;64.00;;;;;;5060386;28;20242;-61
2024/01/25 01:02:40;;;;;;;11.88;2.25;;;14.00;64.00;;;;;;5050139;28;20539;-61
2024/01/25 01:05:11;;;;;;;12.82;1.73;;;14.10;63.90;;;;;;5046077;28;20057;-66
2024/01/25 01:07:41;;;;;;;10.60;1.48;;;14.10;63.80;;;;;;5044312;28;20048;-62
2024/01/25 01:10:10;;;;;;;26.92;2.97;;;14.10;63.70;;;;;;5050197;28;20540;-60
2024/01/25 01:12:39;;;;;;;13.88;3.88;;;14.10;63.60;;;;;;5048635;28;20057;-61
2024/01/25 01:15:08;;;;;;;35.75;8.18;;;14.10;63.60;;;;;;5044635;28;20493;-62
2024/01/25 01:17:36;;;;;;;12.95;2.40;;;14.10;63.70;;;;;;5054138;28;20775;-61
2024/01/25 01:20:05;;;;;;;5.70;2.40;;;14.20;63.50;;;;;;5046929;28;20053;-61
2024/01/25 01:22:35;;;;;;;5.45;1.98;;;14.10;63.40;;;;;;5050775;28;20053;-61
2024/01/25 01:25:04;;;;;;;14.45;2.72;;;14.10;63.40;;;;;;5046012;28;20053;-63
2024/01/25 01:27:32;;;;;;;14.20;1.70;;;14.40;64.00;;;;;;5052251;28;20787;-62
2024/01/25 01:30:00;;;;;;;9.13;2.10;;;14.20;63.30;;;;;;5055298;28;20084;-63
2024/01/25 01:32:29;;;;;;;23.88;2.97;;;14.20;63.20;;;;;;5063902;28;20575;-60
2024/01/25 01:34:57;;;;;;;10.82;1.77;;;14.20;63.10;;;;;;5069280;28;20121;-63
2024/01/25 01:37:26;;;;;;;10.77;2.13;;;14.20;63.00;;;;;;5049559;28;20055;-61
2024/01/25 01:39:58;;;;;;;14.10;2.05;;;14.20;62.90;;;;;;5049425;28;20052;-62
2024/01/25 01:42:28;;;;;;;9.30;1.40;;;14.20;62.90;;;;;;5050607;28;20076;-63
2024/01/25 01:44:57;;;;;;;34.45;5.88;;;14.20;62.90;;;;;;5048213;28;20562;-63
2024/01/25 01:47:26;;;;;;;18.50;2.97;;;14.10;62.80;;;;;;5050341;28;22062;-74
2024/01/25 01:49:54;;;;;;;13.52;1.63;;;14.10;62.80;;;;;;5047341;28;20061;-62
2024/01/25 01:52:23;;;;;;;13.35;1.75;;;14.10;62.90;;;;;;5045345;28;20060;-63
2024/01/25 01:54:52;;;;;;;12.35;2.10;;;14.10;62.80;;;;;;5051345;28;20056;-63
2024/01/25 01:57:21;;;;;;;12.50;2.70;;;14.10;62.70;;;;;;5041373;28;20076;-62
2024/01/25 01:59:50;;;;;;;18.95;2.60;;;14.10;62.70;;;;;;5040283;28;20064;-62
2024/01/25 02:02:18;;;;;;;6.65;1.60;;;14.00;62.70;;;;;;5042091;28;20067;-63
2024/01/25 02:04:47;;;;;;;13.85;3.58;;;14.00;62.60;;;;;;5041969;28;20056;-63
2024/01/25 02:07:16;;;;;;;5.03;2.13;;;14.00;62.60;;;;;;5046109;28;20056;-61
2024/01/25 02:09:44;;;;;;;5.40;1.83;;;14.00;62.60;;;;;;5052450;28;20506;-72
2024/01/25 02:12:17;;;;;;;16.50;1.80;;;14.00;62.50;;;;;;5048128;28;20114;-63
2024/01/25 02:14:47;;;;;;;8.85;1.65;;;14.00;62.40;;;;;;5052313;28;20106;-72
2024/01/25 02:17:15;;;;;;;16.77;3.33;;;14.10;62.30;;;;;;5044257;28;20118;-63
2024/01/25 02:19:43;;;;;;;13.20;2.50;;;14.10;62.20;;;;;;5050289;28;20135;-64
2024/01/25 02:22:12;;;;;;;19.75;2.63;;;14.10;62.20;;;;;;5040854;28;20196;-63
2024/01/25 02:24:41;;;;;;;20.25;2.35;;;14.10;62.10;;;;;;5043587;28;20049;-64
2024/01/25 02:27:10;;;;;;;15.00;2.40;;;14.10;62.10;;;;;;5046518;28;20056;-63
2024/01/25 02:29:38;;;;;;;8.85;1.92;;;14.10;61.80;;;;;;5040014;28;20053;-62
2024/01/25 02:32:07;;;;;;;13.85;1.95;;;14.10;61.80;;;;;;5052084;28;20481;-64
2024/01/25 02:34:35;;;;;;;6.13;1.30;;;14.10;61.70;;;;;;5048411;28;20065;-63
2024/01/25 02:37:05;;;;;;;11.48;2.17;;;14.00;61.60;;;;;;5039638;28;20049;-65
2024/01/25 02:39:33;;;;;;;4.30;1.38;;;14.10;61.50;;;;;;5059692;28;20127;-63
2024/01/25 02:42:03;;;;;;;3.55;1.35;;;14.00;61.30;;;;;;5048137;28;20085;-63
2024/01/25 02:44:32;;;;;;;15.98;2.00;;;14.00;61.30;;;;;;5049769;28;20140;-64
2024/01/25 02:47:01;;;;;;;8.15;1.92;;;14.00;61.50;;;;;;5053171;28;20054;-63
2024/01/25 02:49:29;;;;;;;13.77;2.13;;;14.00;61.20;;;;;;5054115;28;20095;-63
2024/01/25 02:51:58;;;;;;;5.05;1.42;;;14.00;61.20;;;;;;5056264;28;20071;-64
2024/01/25 02:54:26;;;;;;;14.15;3.17;;;14.00;61.10;;;;;;5048148;28;20144;-66
2024/01/25 02:56:55;;;;;;;10.32;2.33;;;14.00;61.10;;;;;;5050163;28;20147;-65
2024/01/25 02:59:24;;;;;;;6.70;1.60;;;14.00;61.00;;;;;;5048965;28;20057;-64
2024/01/25 03:01:54;;;;;;;9.70;1.98;;;14.00;61.00;;;;;;5073499;28;20049;-64
2024/01/25 03:04:23;;;;;;;20.70;3.38;;;14.00;60.90;;;;;;5055718;28;20053;-63
2024/01/25 03:06:51;;;;;;;35.25;8.30;;;13.90;60.90;;;;;;5052674;28;20080;-64
2024/01/25 03:09:21;;;;;;;26.10;3.45;;;13.90;60.90;;;;;;5072150;28;20048;-65
2024/01/25 03:11:49;;;;;;;7.15;2.35;;;14.00;60.90;;;;;;5059221;28;20049;-64
2024/01/25 03:14:17;;;;;;;27.95;4.50;;;14.00;60.80;;;;;;5053322;28;20053;-64
2024/01/25 03:16:47;;;;;;;13.38;3.08;;;14.00;60.70;;;;;;5054870;28;20060;-64
2024/01/25 03:19:15;;;;;;;13.60;2.80;;;14.00;60.70;;;;;;5034728;28;20818;-64
2024/01/25 03:21:43;;;;;;;19.77;3.65;;;13.90;60.60;;;;;;5064079;28;20059;-64
2024/01/25 03:24:12;;;;;;;32.10;4.47;;;13.90;60.60;;;;;;5056313;28;20151;-64
2024/01/25 03:26:40;;;;;;;15.77;2.97;;;13.90;60.50;;;;;;5050523;28;20071;-65
2024/01/25 03:29:09;;;;;;;8.25;1.40;;;13.90;60.50;;;;;;5036709;28;20634;-65
2024/01/25 03:31:37;;;;;;;9.68;1.45;;;14.00;60.50;;;;;;5048510;28;20041;-64
2024/01/25 03:34:07;;;;;;;7.63;1.27;;;14.00;60.40;;;;;;5054587;28;20052;-65
2024/01/25 03:36:36;;;;;;;23.52;4.95;;;14.00;60.20;;;;;;5054084;28;20064;-66
2024/01/25 03:39:05;;;;;;;18.15;3.55;;;14.00;60.40;;;;;;5051086;28;20052;-66
2024/01/25 03:41:33;;;;;;;13.68;3.05;;;14.10;60.30;;;;;;5050239;28;20061;-65
2024/01/25 03:44:01;;;;;;;15.70;3.22;;;14.00;59.90;;;;;;5045363;28;20083;-73
2024/01/25 03:46:30;;;;;;;15.20;3.90;;;14.00;60.00;;;;;;5050710;28;20149;-64
2024/01/25 03:48:58;;;;;;;80.00;17.83;;;14.10;60.00;;;;;;5056808;28;20497;-64
2024/01/25 03:51:28;;;;;;;29.48;5.13;;;14.00;59.80;;;;;;5045724;28;20066;-64
2024/01/25 03:53:58;;;;;;;18.83;3.95;;;14.00;59.80;;;;;;5055711;28;20064;-66
2024/01/25 03:56:26;;;;;;;13.80;3.05;;;14.00;59.80;;;;;;5053116;28;20790;-64
2024/01/25 03:58:55;;;;;;;23.33;3.83;;;13.90;59.90;;;;;;5044990;28;20061;-64
2024/01/25 04:01:23;;;;;;;10.20;1.92;;;13.80;59.90;;;;;;5034323;28;21461;-66
2024/01/25 04:03:54;;;;;;;10.25;1.95;;;13.80;60.00;;;;;;5050307;28;20049;-64
2024/01/25 04:06:22;;;;;;;7.78;2.20;;;13.70;60.10;;;;;;5050913;28;20048;-64
2024/01/25 04:08:52;;;;;;;8.70;1.17;;;13.70;60.10;;;;;;5064724;28;20072;-64
2024/01/25 04:11:20;;;;;;;14.32;2.83;;;13.70;61.00;;;;;;5044898;28;20699;-64
2024/01/25 04:13:49;;;;;;;16.85;3.88;;;13.70;60.10;;;;;;5047477;28;20084;-65
2024/01/25 04:16:17;;;;;;;13.77;5.05;;;13.80;60.00;;;;;;5053139;28;20079;-64
2024/01/25 04:18:46;;;;;;;9.90;1.73;;;13.80;60.10;;;;;;5064781;28;20680;-66
2024/01/25 04:21:15;;;;;;;16.55;1.95;;;13.80;60.00;;;;;;5046272;28;20070;-65
2024/01/25 04:23:43;;;;;;;9.02;1.73;;;13.80;59.90;;;;;;5063645;28;20080;-63
2024/01/25 04:26:13;;;;;;;8.18;1.63;;;13.90;59.80;;;;;;5054872;28;20052;-63
2024/01/25 04:28:41;;;;;;;11.68;2.08;;;13.90;59.70;;;;;;5046432;28;20076;-63
2024/01/25 04:31:09;;;;;;;4.43;1.45;;;14.00;59.70;;;;;;5047448;28;20832;-64
2024/01/25 04:33:40;;;;;;;15.25;1.73;;;14.00;59.60;;;;;;5045513;28;20051;-62
2024/01/25 04:36:15;;;;;;;6.68;1.75;;;14.00;59.70;;;;;;5051023;28;20087;-65
2024/01/25 04:38:44;;;;;;;2.47;1.55;;;14.00;59.60;;;;;;5048354;28;20055;-65
2024/01/25 04:41:14;;;;;;;7.30;1.65;;;14.00;59.60;;;;;;5039564;28;20159;-65
2024/01/25 04:43:42;;;;;;;1.60;0.80;;;14.00;59.50;;;;;;5048752;28;20060;-64
2024/01/25 04:46:11;;;;;;;11.95;1.65;;;14.00;59.50;;;;;;5045953;28;20053;-63
2024/01/25 04:48:39;;;;;;;9.77;1.80;;;14.10;59.50;;;;;;5051517;28;20414;-65
2024/01/25 04:51:08;;;;;;;16.35;1.73;;;14.10;59.40;;;;;;5041637;28;20051;-63
2024/01/25 04:53:37;;;;;;;6.70;1.50;;;14.00;59.40;;;;;;5047133;28;20060;-66
2024/01/25 04:56:05;;;;;;;6.15;1.27;;;14.00;59.40;;;;;;5048874;28;20139;-64
2024/01/25 04:58:35;;;;;;;8.85;1.65;;;14.10;59.40;;;;;;5055652;28;20061;-63
2024/01/25 05:01:06;;;;;;;11.00;1.67;;;14.10;59.70;;;;;;5040251;28;20103;-63
2024/01/25 05:03:35;;;;;;;11.88;1.25;;;14.10;59.30;;;;;;5047329;28;20190;-64
2024/01/25 05:06:04;;;;;;;13.93;2.35;;;14.10;59.60;;;;;;5052987;28;20151;-63
2024/01/25 05:08:32;;;;;;;4.30;1.48;;;14.10;59.30;;;;;;5048914;28;20142;-63
2024/01/25 05:11:01;;;;;;;8.20;2.35;;;14.10;59.40;;;;;;5037477;28;20057;-63
2024/01/25 05:13:30;;;;;;;16.58;2.17;;;14.10;59.40;;;;;;5047164;28;20657;-63
2024/01/25 05:16:00;;;;;;;12.73;1.50;;;14.10;59.40;;;;;;5047271;28;20142;-64
2024/01/25 05:18:29;;;;;;;18.98;1.83;;;14.10;59.30;;;;;;5054363;28;20064;-63
2024/01/25 05:20:58;;;;;;;6.43;1.65;;;14.20;59.70;;;;;;5066166;28;20119;-63
2024/01/25 05:23:27;;;;;;;10.45;1.85;;;14.20;59.60;;;;;;5043127;28;20044;-62
2024/01/25 05:25:55;;;;;;;3.95;1.80;;;14.10;59.60;;;;;;5045186;28;20950;-63
2024/01/25 05:28:24;;;;;;;1.20;0.93;;;14.10;59.20;;;;;;5047172;28;20060;-77
2024/01/25 05:30:52;;;;;;;10.75;1.40;;;14.00;59.30;;;;;;5044924;28;20098;-63
2024/01/25 05:33:22;;;;;;;6.53;1.63;;;14.00;59.30;;;;;;5057884;28;20047;-64
2024/01/25 05:35:51;;;;;;;17.85;1.63;;;13.90;59.50;;;;;;5051147;28;20056;-64
2024/01/25 05:38:20;;;;;;;10.90;2.75;;;13.80;59.50;;;;;;5073957;28;20067;-63
2024/01/25 05:40:48;;;;;;;9.27;2.30;;;13.70;59.50;;;;;;5044190;28;20722;-64
2024/01/25 05:43:18;;;;;;;12.80;4.15;;;13.70;59.70;;;;;;5046503;28;20812;-64
2024/01/25 05:45:46;;;;;;;11.63;3.85;;;13.70;59.70;;;;;;5057308;28;20057;-65
2024/01/25 05:48:15;;;;;;;12.05;3.05;;;13.60;59.80;;;;;;5045933;28;20056;-61
2024/01/25 05:50:45;;;;;;;14.50;1.98;;;13.50;59.80;;;;;;5043720;28;20052;-63
2024/01/25 05:53:16;;;;;;;7.05;1.48;;;13.50;59.90;;;;;;5050045;28;20753;-60
2024/01/25 05:55:44;;;;;;;7.30;2.13;;;13.50;59.90;;;;;;5046591;28;20147;-57
2024/01/25 05:58:13;;;;;;;6.07;2.78;;;13.40;59.90;;;;;;5053488;28;20565;-63
2024/01/25 06:00:41;;;;;;;15.52;1.75;;;13.40;60.10;;;;;;5056464;28;20055;-62
2024/01/25 06:03:10;;;;;;;23.27;2.50;;;13.40;60.30;;;;;;5044210;28;20064;-62
2024/01/25 06:05:38;;;;;;;6.00;1.95;;;13.30;60.30;;;;;;5050115;28;20056;-61
2024/01/25 06:08:09;;;;;;;12.18;2.35;;;13.30;60.30;;;;;;5052908;28;20048;-60
2024/01/25 06:10:39;;;;;;;5.28;1.08;;;13.30;60.40;;;;;;5055277;28;20547;-62
2024/01/25 06:13:07;;;;;;;10.25;2.25;;;13.30;60.40;;;;;;5047378;28;20434;-63
2024/01/25 06:15:36;;;;;;;6.15;1.77;;;13.30;60.40;;;;;;5056435;28;20144;-61
2024/01/25 06:18:05;;;;;;;11.35;2.38;;;13.30;60.40;;;;;;5069176;28;20060;-63
2024/01/25 06:20:33;;;;;;;12.52;1.88;;;13.40;60.50;;;;;;5055665;28;20457;-63
2024/01/25 06:23:02;;;;;;;13.18;2.70;;;13.50;60.40;;;;;;5044166;28;20047;-63
2024/01/25 06:25:31;;;;;;;8.65;1.75;;;13.50;60.40;;;;;;5049117;28;20127;-64
2024/01/25 06:28:00;;;;;;;5.90;1.83;;;13.50;60.30;;;;;;5067906;28;20043;-64
2024/01/25 06:30:28;;;;;;;17.10;4.82;;;13.60;60.20;;;;;;5049825;28;20052;-64
2024/01/25 06:32:57;;;;;;;27.60;2.92;;;13.60;60.10;;;;;;5050330;28;20058;-64
2024/01/25 06:35:26;;;;;;;12.00;4.80;;;13.70;60.20;;;;;;5052897;28;20064;-64
2024/01/25 06:37:54;;;;;;;14.95;3.65;;;13.70;60.10;;;;;;5058463;28;20502;-66
2024/01/25 06:40:23;;;;;;;15.40;3.72;;;13.70;60.00;;;;;;5057499;28;20080;-63
2024/01/25 06:42:53;;;;;;;10.90;2.08;;;13.70;60.10;;;;;;5050225;28;20054;-63
2024/01/25 06:45:21;;;;;;;20.33;2.72;;;13.60;60.00;;;;;;5048220;28;20068;-64
2024/01/25 06:47:50;;;;;;;9.52;2.85;;;13.60;60.00;;;;;;5056002;28;20059;-63
2024/01/25 06:50:18;;;;;;;11.88;1.92;;;13.50;60.00;;;;;;5052812;28;20056;-64
2024/01/25 06:52:48;;;;;;;9.07;1.75;;;13.30;60.10;;;;;;5049961;28;20152;-63
2024/01/25 06:55:16;;;;;;;4.97;1.42;;;13.20;60.30;;;;;;5032253;28;20052;-62
2024/01/25 06:57:45;;;;;;;9.98;2.30;;;13.20;60.40;;;;;;5029604;28;20110;-62
2024/01/25 07:00:18;;;;;;;12.18;2.45;;;13.00;60.40;;;;;;5036508;28;20060;-62
2024/01/25 07:02:48;;;;;;;9.57;1.90;;;12.90;60.60;;;;;;5041156;28;20474;-64
2024/01/25 07:05:17;;;;;;;10.73;2.47;;;12.90;61.10;;;;;;5047102;28;20056;-61
2024/01/25 07:07:45;;;;;;;9.20;3.53;;;12.80;61.30;;;;;;5038045;28;20067;-62
2024/01/25 07:10:14;;;;;;;18.95;2.70;;;12.60;61.20;;;;;;5045208;28;20052;-59
2024/01/25 07:12:43;;;;;;;20.60;3.58;;;12.50;61.20;;;;;;5060129;28;20076;-58
2024/01/25 07:15:11;;;;;;;12.85;3.30;;;12.40;61.40;;;;;;5039886;28;20072;-58
2024/01/25 07:17:42;;;;;;;14.10;2.63;;;12.30;61.70;;;;;;5041729;28;20589;-57
2024/01/25 07:20:11;;;;;;;8.75;1.50;;;12.20;62.10;;;;;;5047985;28;20147;-59
2024/01/25 07:22:40;;;;;;;10.32;2.60;;;12.10;62.00;;;;;;5039615;28;20804;-59
2024/01/25 07:25:09;;;;;;;7.50;3.13;;;12.00;62.10;;;;;;5042600;28;20053;-59
2024/01/25 07:27:37;;;;;;;9.40;2.17;;;12.00;62.30;;;;;;5043786;28;20082;-59
2024/01/25 07:30:08;;;;;;;17.38;3.00;;;12.00;62.40;;;;;;5056096;28;20088;-57
2024/01/25 07:32:37;;;;;;;9.20;1.60;;;12.00;62.60;;;;;;5052865;28;20064;-55
2024/01/25 07:35:09;;;;;;;23.73;3.08;;;12.00;62.80;;;;;;5048186;28;20045;-55
2024/01/25 07:37:37;;;;;;;17.88;2.13;;;12.10;62.80;;;;;;5064501;28;20375;-58
2024/01/25 07:40:07;;;;;;;6.88;2.20;;;12.10;62.80;;;;;;5070727;28;20044;-58
2024/01/25 07:42:36;;;;;;;25.05;3.63;;;12.10;62.80;;;;;;5050545;28;20052;-59
2024/01/25 07:45:06;;;;;;;17.95;2.92;;;12.10;62.80;;;;;;5061458;28;20128;-59
2024/01/25 07:47:34;;;;;;;11.65;2.85;;;12.20;62.80;;;;;;5052069;28;20048;-59
2024/01/25 07:50:03;;;;;;;8.85;2.90;;;12.20;62.90;;;;;;5052724;28;20052;-59
2024/01/25 07:52:33;;;;;;;25.77;3.40;;;12.30;62.80;;;;;;5063310;28;20064;-60
2024/01/25 07:55:01;;;;;;;5.30;3.13;;;12.30;62.80;;;;;;5054765;28;20075;-58
2024/01/25 07:57:33;;;;;;;21.08;3.55;;;12.40;62.80;;;;;;5047495;28;20142;-59
2024/01/25 08:00:02;;;;;;;18.45;2.53;;;12.50;62.80;;;;;;5050953;28;20063;-55
2024/01/25 08:02:31;;;;;;;19.02;3.38;;;12.50;62.80;;;;;;5051480;28;20127;-60
2024/01/25 08:05:00;;;;;;;6.47;2.33;;;12.60;62.80;;;;;;5057716;28;20134;-58
2024/01/25 08:07:29;;;;;;;30.25;5.35;;;12.60;62.70;;;;;;5046725;28;20060;-59
2024/01/25 08:09:59;;;;;;;4.75;2.92;;;12.70;62.60;;;;;;5058174;28;20507;-58
2024/01/25 08:12:28;;;;;;;25.75;3.35;;;12.70;62.70;;;;;;5053938;28;20140;-58
2024/01/25 08:14:56;;;;;;;2.58;1.80;;;12.80;62.60;;;;;;5052686;28;20049;-59
2024/01/25 08:17:25;;;;;;;9.05;2.40;;;12.80;62.70;;;;;;5043155;28;20059;-58
2024/01/25 08:19:53;;;;;;;8.18;2.40;;;12.90;62.80;;;;;;5052143;28;20078;-59
2024/01/25 08:22:23;;;;;;;25.08;3.58;;;12.90;62.80;;;;;;5055580;28;20093;-57
2024/01/25 08:24:51;;;;;;;4.82;1.85;;;13.00;62.70;;;;;;5049979;28;20051;-59
2024/01/25 08:27:21;;;;;;;11.27;2.55;;;13.00;62.50;;;;;;5044766;28;20407;-59
2024/01/25 08:29:51;;;;;;;2.22;1.50;;;13.00;62.40;;;;;;5033435;28;20052;-60
2024/01/25 08:32:19;;;;;;;17.05;3.47;;;13.00;62.40;;;;;;5052438;28;20055;-57
2024/01/25 08:34:47;;;;;;;9.85;1.73;;;13.00;62.30;;;;;;5045318;28;20560;-59
2024/01/25 08:37:16;;;;;;;7.05;2.60;;;12.90;62.30;;;;;;5042138;28;20060;-56
2024/01/25 08:39:45;;;;;;;2.72;1.70;;;12.90;62.50;;;;;;5045353;28;20056;-60
2024/01/25 08:42:14;;;;;;;9.63;2.58;;;13.00;62.60;;;;;;5052789;28;20052;-60
2024/01/25 08:44:48;;;;;;;5.88;2.03;;;13.10;62.70;;;;;;5048241;28;20049;-59
2024/01/25 08:47:18;;;;;;;21.35;3.55;;;13.20;62.70;;;;;;5040625;28;20160;-59
2024/01/25 08:49:46;;;;;;;28.50;3.40;;;13.40;62.50;;;;;;5048414;28;20384;-58
2024/01/25 08:52:15;;;;;;;5.47;2.38;;;13.50;62.30;;;;;;5054044;28;20082;-60
2024/01/25 08:54:44;;;;;;;9.52;4.30;;;13.50;62.30;;;;;;5053243;28;20113;-59
2024/01/25 08:57:14;;;;;;;20.83;3.22;;;13.50;62.30;;;;;;5064214;28;20774;-60
2024/01/25 08:59:44;;;;;;;40.70;3.50;;;13.60;62.30;;;;;;5058071;28;20103;-59
2024/01/25 09:02:13;;;;;;;24.48;3.28;;;13.70;62.20;;;;;;5081149;28;20111;-59
2024/01/25 09:04:43;;;;;;;9.77;1.92;;;13.70;62.10;;;;;;5071539;28;20570;-59
2024/01/25 09:07:12;;;;;;;8.35;2.13;;;13.80;62.10;;;;;;5067569;28;20059;-57
2024/01/25 09:09:40;;;;;;;22.77;2.90;;;13.80;62.10;;;;;;5069489;28;20224;-59
2024/01/25 09:12:11;;;;;;;19.55;2.72;;;13.80;61.80;;;;;;5063262;28;20067;-60
2024/01/25 09:14:39;;;;;;;2.42;1.80;;;13.80;61.80;;;;;;5071987;28;20060;-59
2024/01/25 09:17:09;;;;;;;10.15;2.03;;;13.80;61.70;;;;;;5071561;28;20063;-60
2024/01/25 09:19:38;;;;;;;24.73;2.78;;;13.80;61.70;;;;;;5064747;28;20135;-60
2024/01/25 09:22:09;;;;;;;19.63;3.30;;;13.80;61.70;;;;;;5071349;28;20098;-60
2024/01/25 09:24:40;;;;;;;14.82;2.58;;;13.90;61.90;;;;;;5071987;28;20068;-60
2024/01/25 09:27:08;;;;;;;5.57;2.30;;;14.00;61.90;;;;;;5057285;28;20052;-60
2024/01/25 09:29:38;;;;;;;7.07;1.98;;;14.00;61.70;;;;;;5067269;28;20199;-60
2024/01/25 09:32:07;;;;;;;15.25;3.35;;;14.00;62.00;;;;;;5062002;28;20054;-60
2024/01/25 09:34:38;;;;;;;3.45;1.65;;;14.10;61.70;;;;;;5074729;28;20133;-59
2024/01/25 09:37:08;;;;;;;25.60;3.10;;;14.10;61.60;;;;;;5060670;28;20090;-60
2024/01/25 09:39:37;;;;;;;10.52;1.92;;;14.20;61.70;;;;;;5064593;28;20151;-60
2024/01/25 09:42:06;;;;;;;3.08;1.23;;;14.20;61.50;;;;;;5069433;28;20051;-61
2024/01/25 09:44:35;;;;;;;12.02;2.78;;;14.30;61.60;;;;;;5068140;28;20781;-60
2024/01/25 09:47:07;;;;;;;15.45;2.50;;;14.40;61.70;;;;;;5066904;28;20219;-61
2024/01/25 09:49:38;;;;;;;13.02;1.88;;;14.50;61.60;;;;;;5063090;28;20052;-61
2024/01/25 09:52:12;;;;;;;13.25;3.00;;;14.60;61.50;;;;;;5090358;27;20054;-59
2024/01/25 09:54:41;;;;;;;28.55;2.90;;;14.70;61.40;;;;;;5071077;28;20067;-60
2024/01/25 09:57:15;;;;;;;34.95;5.07;;;14.80;61.40;;;;;;5060952;28;20064;-60
2024/01/25 09:59:44;;;;;;;21.20;2.47;;;15.00;61.10;;;;;;5065255;28;20611;-59
2024/01/25 10:02:12;;;;;;;4.00;2.10;;;15.10;60.90;;;;;;5085875;28;20052;-61
2024/01/25 10:04:42;;;;;;;6.47;2.08;;;15.10;60.60;;;;;;5085674;28;20489;-63
2024/01/25 10:07:11;;;;;;;8.82;2.63;;;15.20;60.70;;;;;;5057219;28;20055;-61
2024/01/25 10:09:40;;;;;;;15.82;3.42;;;15.30;61.00;;;;;;5052544;28;20164;-60
2024/01/25 10:12:09;;;;;;;26.55;4.40;;;15.40;60.30;;;;;;5065953;28;20049;-61
2024/01/25 10:14:46;;;;;;;14.63;2.50;;;15.40;60.00;;;;;;5064260;28;20052;-63
2024/01/25 10:17:14;;;;;;;12.60;2.55;;;15.60;61.00;;;;;;5057325;28;20062;-60
2024/01/25 10:19:45;;;;;;;14.60;2.00;;;15.90;60.20;;;;;;5065689;28;20573;-61
2024/01/25 10:22:14;;;;;;;27.65;2.60;;;16.10;59.70;;;;;;5065241;28;20063;-61
2024/01/25 10:24:44;;;;;;;5.88;1.95;;;16.20;59.50;;;;;;5069501;28;20058;-61
2024/01/25 10:27:13;;;;;;;13.55;2.33;;;16.50;59.40;;;;;;5055661;28;20056;-62
2024/01/25 10:29:41;;;;;;;18.83;2.03;;;16.50;58.80;;;;;;5063852;28;20194;-62
2024/01/25 10:32:10;;;;;;;8.70;2.20;;;16.40;58.50;;;;;;5070652;28;20139;-61
2024/01/25 10:34:38;;;;;;;10.98;2.17;;;16.20;58.20;;;;;;5069499;28;20097;-65
2024/01/25 10:37:09;;;;;;;10.98;2.65;;;15.90;58.20;;;;;;5063727;28;20067;-61
2024/01/25 10:39:38;;;;;;;16.20;2.30;;;15.60;58.30;;;;;;5058547;28;20363;-71
2024/01/25 10:42:06;;;;;;;19.30;3.75;;;15.30;58.60;;;;;;5061862;28;20080;-63
2024/01/25 10:44:35;;;;;;;6.90;2.13;;;15.20;58.90;;;;;;5071790;28;20058;-64
2024/01/25 10:47:04;;;;;;;15.73;3.17;;;15.20;59.30;;;;;;5063491;28;20548;-63
2024/01/25 10:49:33;;;;;;;17.58;3.15;;;15.30;59.40;;;;;;5058465;28;20048;-62
2024/01/25 10:52:02;;;;;;;7.20;2.65;;;15.30;59.20;;;;;;5070020;28;20064;-64
2024/01/25 10:54:32;;;;;;;24.23;3.05;;;15.20;59.10;;;;;;5070584;28;20117;-63
2024/01/25 10:57:00;;;;;;;22.52;2.63;;;15.20;59.10;;;;;;5070831;28;20052;-63
2024/01/25 10:59:29;;;;;;;22.38;2.22;;;15.30;59.30;;;;;;5057583;28;20060;-62
2024/01/25 11:01:58;;;;;;;20.30;3.63;;;15.50;59.30;;;;;;5073332;28;20059;-63
2024/01/25 11:04:26;;;;;;;16.60;2.72;;;15.60;59.20;;;;;;5077181;28;20051;-63
2024/01/25 11:07:05;;;;;;;17.45;3.30;;;15.70;59.10;;;;;;5066308;28;20044;-63
2024/01/25 11:09:37;;;;;;;7.15;2.15;;;15.80;59.00;;;;;;5064558;28;20055;-64
2024/01/25 11:12:13;;;;;;;21.92;3.08;;;15.80;58.80;;;;;;5078810;28;20465;-63
2024/01/25 11:14:42;;;;;;;6.20;2.33;;;15.90;58.70;;;;;;5074584;28;20052;-63
2024/01/25 11:17:20;;;;;;;13.80;2.00;;;16.00;58.60;;;;;;5061280;28;20051;-63
2024/01/25 11:19:50;;;;;;;19.42;3.83;;;16.10;58.50;;;;;;5074199;27;20071;-64
2024/01/25 11:22:19;;;;;;;12.50;1.88;;;16.20;58.40;;;;;;5077716;28;20055;-64
2024/01/25 11:24:50;;;;;;;19.83;2.60;;;16.60;59.10;;;;;;5073419;28;20135;-65
2024/01/25 11:27:20;;;;;;;28.10;3.97;;;17.00;58.60;;;;;;5079477;27;20560;-64
2024/01/25 11:29:49;;;;;;;20.27;2.85;;;17.40;58.30;;;;;;5065811;28;20044;-64
2024/01/25 11:32:18;;;;;;;24.15;3.17;;;17.70;57.50;;;;;;5078421;28;20391;-65
2024/01/25 11:34:47;;;;;;;14.43;1.83;;;17.70;56.70;;;;;;5076016;28;20048;-64
2024/01/25 11:37:17;;;;;;;11.27;3.38;;;17.50;56.80;;;;;;5067515;27;20122;-65
2024/01/25 11:39:46;;;;;;;14.65;3.17;;;17.40;57.10;;;;;;5079341;28;20102;-65
2024/01/25 11:42:16;;;;;;;9.85;2.63;;;17.40;57.10;;;;;;5072335;28;20425;-64
2024/01/25 11:44:45;;;;;;;6.88;2.22;;;17.30;57.00;;;;;;5075042;28;20059;-65
2024/01/25 11:47:13;;;;;;;15.40;2.25;;;17.30;57.20;;;;;;5075323;28;20055;-65
2024/01/25 11:49:42;;;;;;;20.70;4.95;;;17.20;57.30;;;;;;5083160;28;20055;-68
2024/01/25 11:52:10;;;;;;;50.83;4.03;;;17.20;57.10;;;;;;5080652;28;20052;-65
2024/01/25 11:54:39;;;;;;;13.95;2.38;;;17.10;56.80;;;;;;5084408;28;20122;-66
2024/01/25 11:57:07;;;;;;;5.45;1.58;;;17.00;56.70;;;;;;5094304;27;20047;-66
2024/01/25 11:59:37;;;;;;;22.30;2.60;;;16.80;56.70;;;;;;5082977;28;20074;-64
2024/01/25 12:02:06;;;;;;;14.85;2.35;;;16.70;56.80;;;;;;5076496;28;20131;-66
2024/01/25 12:04:35;;;;;;;25.23;3.10;;;16.60;56.90;;;;;;5084974;28;20075;-64
2024/01/25 12:07:06;;;;;;;13.13;2.90;;;16.50;56.90;;;;;;5078127;27;20072;-69
2024/01/25 12:09:34;;;;;;;21.67;3.67;;;16.30;56.80;;;;;;5067263;28;20494;-64
2024/01/25 12:12:03;;;;;;;25.10;3.75;;;16.20;56.90;;;;;;5076167;28;20139;-64
2024/01/25 12:14:31;;;;;;;70.15;7.05;;;16.00;56.90;;;;;;5085906;28;20048;-65
2024/01/25 12:17:01;;;;;;;31.58;4.38;;;15.90;57.00;;;;;;5064687;28;20072;-63
2024/01/25 12:19:30;;;;;;;22.30;3.28;;;15.90;57.10;;;;;;5062948;28;20064;-63
2024/01/25 12:21:59;;;;;;;13.02;2.42;;;15.80;57.10;;;;;;5068034;28;20083;-64
2024/01/25 12:24:27;;;;;;;19.38;2.60;;;15.70;57.10;;;;;;5070514;28;20066;-64
2024/01/25 12:26:56;;;;;;;24.02;2.50;;;15.60;57.10;;;;;;5078313;28;20045;-64
2024/01/25 12:29:24;;;;;;;68.10;8.05;;;15.50;57.20;;;;;;5053448;28;20079;-65
2024/01/25 12:31:52;;;;;;;24.73;3.28;;;15.60;58.00;;;;;;5073323;28;20157;-63
2024/01/25 12:34:22;;;;;;;12.13;3.03;;;15.60;57.20;;;;;;5072714;28;20052;-63
2024/01/25 12:36:52;;;;;;;15.75;2.55;;;15.60;57.00;;;;;;5063467;28;20110;-61
2024/01/25 12:39:20;;;;;;;39.08;4.18;;;15.60;57.10;;;;;;5060182;28;20477;-65
2024/01/25 12:41:49;;;;;;;21.85;2.90;;;15.60;57.20;;;;;;5072465;28;20117;-64
2024/01/25 12:44:19;;;;;;;12.85;3.30;;;15.70;57.30;;;;;;5069115;28;20063;-64
2024/01/25 12:46:48;;;;;;;26.67;5.95;;;15.70;57.10;;;;;;5061284;28;20552;-65
2024/01/25 12:49:16;;;;;;;20.65;3.80;;;15.80;57.20;;;;;;5063221;28;20047;-63